sensor_id;sensor_type;location;lat;lon;timestamp;P1;durP1;ratioP1;P2;durP2;ratioP2
41167;SDS011;26906;45.658;9.272;2023-11-21T06:34:48;71.88;;;36.03;;
41167;SDS011;26906;45.658;9.272;2023-11-21T06:37:14;69.82;;;36.55;;
41167;SDS011;26906;45.658;9.272;2023-11-21T06:39:41;59.03;;;35.85;;
41167;SDS011;26906;45.658;9.272;2023-11-21T06:42:11;55.55;;;36.33;;
41167;SDS011;26906;45.658;9.272;2023-11-21T06:44:36;60.75;;;37.78;;
41167;SDS011;26906;45.658;9.272;2023-11-21T06:47:02;56.72;;;37.72;;
41167;SDS011;26906;45.658;9.272;2023-11-21T06:49:28;58.20;;;38.30;;
41167;SDS011;26906;45.658;9.272;2023-11-21T06:51:54;63.13;;;38.13;;
41167;SDS011;26906;45.658;9.272;2023-11-21T06:54:20;65.13;;;38.47;;
41167;SDS011;26906;45.658;9.272;2023-11-21T06:56:46;62.17;;;37.60;;
41167;SDS011;26906;45.658;9.272;2023-11-21T06:59:12;56.83;;;37.67;;
41167;SDS011;26906;45.658;9.272;2023-11-21T07:01:38;64.70;;;38.05;;
41167;SDS011;26906;45.658;9.272;2023-11-21T07:04:06;59.08;;;37.42;;
41167;SDS011;26906;45.658;9.272;2023-11-21T07:06:32;66.43;;;38.75;;
41167;SDS011;26906;45.658;9.272;2023-11-21T07:08:58;56.22;;;38.10;;
41167;SDS011;26906;45.658;9.272;2023-11-21T07:11:23;58.30;;;38.92;;
41167;SDS011;26906;45.658;9.272;2023-11-21T07:13:51;59.72;;;35.67;;
41167;SDS011;26906;45.658;9.272;2023-11-21T07:16:17;53.72;;;37.80;;
41167;SDS011;26906;45.658;9.272;2023-11-21T07:18:43;55.15;;;38.35;;
41167;SDS011;26906;45.658;9.272;2023-11-21T07:21:09;59.88;;;38.08;;
41167;SDS011;26906;45.658;9.272;2023-11-21T07:23:37;58.70;;;38.38;;
41167;SDS011;26906;45.658;9.272;2023-11-21T07:26:03;67.00;;;39.30;;
41167;SDS011;26906;45.658;9.272;2023-11-21T07:28:34;58.80;;;37.70;;
41167;SDS011;26906;45.658;9.272;2023-11-21T07:31:00;59.13;;;39.40;;
41167;SDS011;26906;45.658;9.272;2023-11-21T07:33:26;51.97;;;39.33;;
41167;SDS011;26906;45.658;9.272;2023-11-21T07:35:52;58.53;;;38.22;;
41167;SDS011;26906;45.658;9.272;2023-11-21T07:38:18;59.03;;;38.03;;
41167;SDS011;26906;45.658;9.272;2023-11-21T07:40:43;53.92;;;37.10;;
41167;SDS011;26906;45.658;9.272;2023-11-21T07:43:09;55.70;;;36.70;;
41167;SDS011;26906;45.658;9.272;2023-11-21T07:45:36;49.50;;;36.40;;
41167;SDS011;26906;45.658;9.272;2023-11-21T07:48:02;52.35;;;36.13;;
41167;SDS011;26906;45.658;9.272;2023-11-21T07:50:30;48.17;;;35.20;;
41167;SDS011;26906;45.658;9.272;2023-11-21T07:52:56;48.90;;;34.72;;
41167;SDS011;26906;45.658;9.272;2023-11-21T07:55:22;48.13;;;33.60;;
41167;SDS011;26906;45.658;9.272;2023-11-21T07:57:49;44.22;;;32.50;;
41167;SDS011;26906;45.658;9.272;2023-11-21T08:00:15;45.15;;;32.60;;
41167;SDS011;26906;45.658;9.272;2023-11-21T08:02:41;41.80;;;32.80;;
41167;SDS011;26906;45.658;9.272;2023-11-21T08:05:08;46.63;;;32.88;;
41167;SDS011;26906;45.658;9.272;2023-11-21T08:07:34;47.63;;;34.40;;
41167;SDS011;26906;45.658;9.272;2023-11-21T08:10:00;49.35;;;34.17;;
41167;SDS011;26906;45.658;9.272;2023-11-21T08:12:25;46.83;;;33.95;;
41167;SDS011;26906;45.658;9.272;2023-11-21T08:14:52;47.50;;;34.03;;
41167;SDS011;26906;45.658;9.272;2023-11-21T08:17:18;48.75;;;33.03;;
41167;SDS011;26906;45.658;9.272;2023-11-21T08:19:45;49.47;;;34.15;;
41167;SDS011;26906;45.658;9.272;2023-11-21T08:22:14;50.17;;;33.47;;
41167;SDS011;26906;45.658;9.272;2023-11-21T08:24:44;46.28;;;34.55;;
41167;SDS011;26906;45.658;9.272;2023-11-21T08:27:12;47.15;;;34.25;;
41167;SDS011;26906;45.658;9.272;2023-11-21T08:29:41;44.72;;;34.45;;
41167;SDS011;26906;45.658;9.272;2023-11-21T08:32:08;44.22;;;34.85;;
41167;SDS011;26906;45.658;9.272;2023-11-21T08:34:34;49.97;;;34.83;;
41167;SDS011;26906;45.658;9.272;2023-11-21T08:37:01;47.45;;;35.38;;
41167;SDS011;26906;45.658;9.272;2023-11-21T08:39:27;48.08;;;35.83;;
41167;SDS011;26906;45.658;9.272;2023-11-21T08:41:55;63.13;;;34.70;;
41167;SDS011;26906;45.658;9.272;2023-11-21T08:44:21;47.00;;;35.83;;
41167;SDS011;26906;45.658;9.272;2023-11-21T08:46:48;46.15;;;34.17;;
41167;SDS011;26906;45.658;9.272;2023-11-21T08:49:14;48.88;;;36.65;;
41167;SDS011;26906;45.658;9.272;2023-11-21T08:51:40;45.95;;;35.38;;
41167;SDS011;26906;45.658;9.272;2023-11-21T08:54:06;45.25;;;34.47;;
41167;SDS011;26906;45.658;9.272;2023-11-21T08:56:35;47.78;;;34.97;;
41167;SDS011;26906;45.658;9.272;2023-11-21T08:59:00;48.38;;;34.55;;
41167;SDS011;26906;45.658;9.272;2023-11-21T09:01:27;52.47;;;34.45;;
41167;SDS011;26906;45.658;9.272;2023-11-21T09:03:54;45.58;;;34.33;;
41167;SDS011;26906;45.658;9.272;2023-11-21T09:06:19;46.65;;;34.22;;
41167;SDS011;26906;45.658;9.272;2023-11-21T09:08:45;50.90;;;34.50;;
41167;SDS011;26906;45.658;9.272;2023-11-21T09:11:10;50.65;;;34.38;;
41167;SDS011;26906;45.658;9.272;2023-11-21T09:13:36;48.55;;;32.88;;
41167;SDS011;26906;45.658;9.272;2023-11-21T09:16:02;47.72;;;33.63;;
41167;SDS011;26906;45.658;9.272;2023-11-21T09:18:28;48.10;;;34.90;;
41167;SDS011;26906;45.658;9.272;2023-11-21T09:20:54;47.67;;;34.47;;
41167;SDS011;26906;45.658;9.272;2023-11-21T09:23:19;44.00;;;31.55;;
41167;SDS011;26906;45.658;9.272;2023-11-21T09:25:46;41.22;;;29.75;;
41167;SDS011;26906;45.658;9.272;2023-11-21T09:28:15;42.85;;;29.92;;
41167;SDS011;26906;45.658;9.272;2023-11-21T09:30:42;41.63;;;29.27;;
41167;SDS011;26906;45.658;9.272;2023-11-21T09:33:08;38.92;;;28.77;;
41167;SDS011;26906;45.658;9.272;2023-11-21T09:35:39;39.90;;;28.23;;
41167;SDS011;26906;45.658;9.272;2023-11-21T09:38:04;41.28;;;28.27;;
41167;SDS011;26906;45.658;9.272;2023-11-21T09:40:36;37.72;;;27.77;;
41167;SDS011;26906;45.658;9.272;2023-11-21T09:43:08;35.67;;;26.55;;
41167;SDS011;26906;45.658;9.272;2023-11-21T09:45:44;40.75;;;27.92;;
41167;SDS011;26906;45.658;9.272;2023-11-21T09:48:19;40.25;;;27.75;;
41167;SDS011;26906;45.658;9.272;2023-11-21T09:50:46;39.33;;;25.92;;
41167;SDS011;26906;45.658;9.272;2023-11-21T09:53:13;35.50;;;24.85;;
41167;SDS011;26906;45.658;9.272;2023-11-21T09:55:43;32.63;;;25.40;;
41167;SDS011;26906;45.658;9.272;2023-11-21T09:58:10;35.92;;;26.65;;
41167;SDS011;26906;45.658;9.272;2023-11-21T10:00:39;36.85;;;27.02;;
41167;SDS011;26906;45.658;9.272;2023-11-21T10:03:06;37.47;;;27.20;;
41167;SDS011;26906;45.658;9.272;2023-11-21T10:05:33;36.83;;;25.67;;
41167;SDS011;26906;45.658;9.272;2023-11-21T10:07:59;39.05;;;26.75;;
41167;SDS011;26906;45.658;9.272;2023-11-21T10:10:25;35.95;;;25.73;;
41167;SDS011;26906;45.658;9.272;2023-11-21T10:12:55;32.83;;;25.27;;
41167;SDS011;26906;45.658;9.272;2023-11-21T10:15:22;40.85;;;26.73;;
41167;SDS011;26906;45.658;9.272;2023-11-21T10:17:50;34.97;;;26.02;;
41167;SDS011;26906;45.658;9.272;2023-11-21T10:20:19;32.45;;;24.60;;
41167;SDS011;26906;45.658;9.272;2023-11-21T10:22:45;35.08;;;26.15;;
41167;SDS011;26906;45.658;9.272;2023-11-21T10:25:12;38.58;;;26.25;;
41167;SDS011;26906;45.658;9.272;2023-11-21T10:27:40;36.13;;;25.55;;
41167;SDS011;26906;45.658;9.272;2023-11-21T10:30:06;40.67;;;28.02;;
41167;SDS011;26906;45.658;9.272;2023-11-21T10:32:33;35.33;;;26.27;;
41167;SDS011;26906;45.658;9.272;2023-11-21T10:34:59;35.42;;;25.80;;
41167;SDS011;26906;45.658;9.272;2023-11-21T10:37:25;39.42;;;24.30;;
41167;SDS011;26906;45.658;9.272;2023-11-21T10:39:57;34.65;;;25.02;;
41167;SDS011;26906;45.658;9.272;2023-11-21T10:42:24;35.60;;;24.80;;
41167;SDS011;26906;45.658;9.272;2023-11-21T10:44:50;37.95;;;25.52;;
41167;SDS011;26906;45.658;9.272;2023-11-21T10:47:17;34.35;;;25.50;;
41167;SDS011;26906;45.658;9.272;2023-11-21T10:49:44;39.53;;;24.50;;
41167;SDS011;26906;45.658;9.272;2023-11-21T10:52:13;35.78;;;24.05;;
41167;SDS011;26906;45.658;9.272;2023-11-21T10:54:42;33.25;;;23.10;;
41167;SDS011;26906;45.658;9.272;2023-11-21T10:57:08;36.83;;;24.63;;
41167;SDS011;26906;45.658;9.272;2023-11-21T10:59:35;35.40;;;24.58;;
41167;SDS011;26906;45.658;9.272;2023-11-21T11:02:02;37.38;;;24.10;;
41167;SDS011;26906;45.658;9.272;2023-11-21T11:04:47;33.28;;;24.52;;
41167;SDS011;26906;45.658;9.272;2023-11-21T11:07:13;35.47;;;23.38;;
41167;SDS011;26906;45.658;9.272;2023-11-21T11:09:41;38.40;;;22.73;;
41167;SDS011;26906;45.658;9.272;2023-11-21T11:12:09;38.10;;;24.27;;
41167;SDS011;26906;45.658;9.272;2023-11-21T11:14:35;33.30;;;24.15;;
41167;SDS011;26906;45.658;9.272;2023-11-21T11:17:01;36.85;;;25.35;;
41167;SDS011;26906;45.658;9.272;2023-11-21T11:19:29;31.92;;;23.33;;
41167;SDS011;26906;45.658;9.272;2023-11-21T11:27:20;33.47;;;23.65;;
41167;SDS011;26906;45.658;9.272;2023-11-21T11:32:28;32.67;;;22.50;;
41167;SDS011;26906;45.658;9.272;2023-11-21T11:35:46;32.63;;;22.42;;
41167;SDS011;26906;45.658;9.272;2023-11-21T11:38:15;35.17;;;22.70;;
41167;SDS011;26906;45.658;9.272;2023-11-21T11:40:44;30.33;;;23.00;;
41167;SDS011;26906;45.658;9.272;2023-11-21T11:43:11;33.03;;;22.95;;
41167;SDS011;26906;45.658;9.272;2023-11-21T11:45:37;30.00;;;22.10;;
41167;SDS011;26906;45.658;9.272;2023-11-21T11:48:10;32.63;;;23.25;;
41167;SDS011;26906;45.658;9.272;2023-11-21T11:50:41;31.95;;;22.25;;
41167;SDS011;26906;45.658;9.272;2023-11-21T11:53:28;33.47;;;23.60;;
41167;SDS011;26906;45.658;9.272;2023-11-21T11:58:48;31.00;;;22.60;;
41167;SDS011;26906;45.658;9.272;2023-11-21T12:01:21;31.52;;;22.75;;
41167;SDS011;26906;45.658;9.272;2023-11-21T12:06:45;31.88;;;23.52;;
41167;SDS011;26906;45.658;9.272;2023-11-21T12:09:23;33.35;;;23.35;;
41167;SDS011;26906;45.658;9.272;2023-11-21T12:11:51;33.72;;;23.90;;
41167;SDS011;26906;45.658;9.272;2023-11-21T12:14:19;33.72;;;23.17;;
41167;SDS011;26906;45.658;9.272;2023-11-21T12:16:45;34.92;;;24.58;;
41167;SDS011;26906;45.658;9.272;2023-11-21T12:19:11;35.67;;;23.73;;
41167;SDS011;26906;45.658;9.272;2023-11-21T12:21:37;37.45;;;24.15;;
41167;SDS011;26906;45.658;9.272;2023-11-21T12:24:09;37.25;;;26.25;;
41167;SDS011;26906;45.658;9.272;2023-11-21T12:26:35;36.95;;;26.20;;
41167;SDS011;26906;45.658;9.272;2023-11-21T12:29:01;38.92;;;27.40;;
41167;SDS011;26906;45.658;9.272;2023-11-21T12:31:29;40.00;;;27.98;;
41167;SDS011;26906;45.658;9.272;2023-11-21T12:33:55;41.63;;;26.83;;
41167;SDS011;26906;45.658;9.272;2023-11-21T12:36:22;33.50;;;25.48;;
41167;SDS011;26906;45.658;9.272;2023-11-21T12:38:49;38.53;;;27.40;;
41167;SDS011;26906;45.658;9.272;2023-11-21T12:41:15;36.63;;;26.73;;
41167;SDS011;26906;45.658;9.272;2023-11-21T12:43:45;38.70;;;26.88;;
41167;SDS011;26906;45.658;9.272;2023-11-21T12:46:12;34.42;;;25.67;;
41167;SDS011;26906;45.658;9.272;2023-11-21T12:48:39;34.45;;;25.63;;
41167;SDS011;26906;45.658;9.272;2023-11-21T12:51:10;38.13;;;26.95;;
41167;SDS011;26906;45.658;9.272;2023-11-21T12:53:37;40.22;;;25.75;;
41167;SDS011;26906;45.658;9.272;2023-11-21T12:56:10;40.65;;;26.92;;
41167;SDS011;26906;45.658;9.272;2023-11-21T12:58:37;36.22;;;26.00;;
41167;SDS011;26906;45.658;9.272;2023-11-21T13:01:07;36.03;;;27.00;;
41167;SDS011;26906;45.658;9.272;2023-11-21T13:03:39;36.92;;;26.50;;
41167;SDS011;26906;45.658;9.272;2023-11-21T13:06:07;41.05;;;27.08;;
41167;SDS011;26906;45.658;9.272;2023-11-21T13:08:33;38.75;;;28.17;;
41167;SDS011;26906;45.658;9.272;2023-11-21T13:11:00;40.15;;;27.02;;
41167;SDS011;26906;45.658;9.272;2023-11-21T13:13:28;38.42;;;27.23;;
41167;SDS011;26906;45.658;9.272;2023-11-21T13:15:55;38.47;;;27.00;;
41167;SDS011;26906;45.658;9.272;2023-11-21T13:18:22;35.63;;;26.90;;
41167;SDS011;26906;45.658;9.272;2023-11-21T13:20:55;43.15;;;26.85;;
41167;SDS011;26906;45.658;9.272;2023-11-21T13:23:23;40.53;;;26.08;;
41167;SDS011;26906;45.658;9.272;2023-11-21T13:25:50;36.30;;;25.23;;
41167;SDS011;26906;45.658;9.272;2023-11-21T13:28:17;38.90;;;27.05;;
41167;SDS011;26906;45.658;9.272;2023-11-21T13:30:49;35.90;;;25.30;;
41167;SDS011;26906;45.658;9.272;2023-11-21T13:33:17;32.85;;;24.77;;
41167;SDS011;26906;45.658;9.272;2023-11-21T13:35:49;39.00;;;28.38;;
41167;SDS011;26906;45.658;9.272;2023-11-21T13:38:17;36.92;;;26.17;;
41167;SDS011;26906;45.658;9.272;2023-11-21T13:40:50;42.17;;;29.40;;
41167;SDS011;26906;45.658;9.272;2023-11-21T13:43:21;43.17;;;29.20;;
41167;SDS011;26906;45.658;9.272;2023-11-21T13:45:49;41.17;;;27.90;;
41167;SDS011;26906;45.658;9.272;2023-11-21T13:48:34;42.47;;;28.00;;
41167;SDS011;26906;45.658;9.272;2023-11-21T13:51:08;43.53;;;26.63;;
41167;SDS011;26906;45.658;9.272;2023-11-21T13:53:45;44.03;;;27.23;;
41167;SDS011;26906;45.658;9.272;2023-11-21T13:56:14;34.88;;;26.15;;
41167;SDS011;26906;45.658;9.272;2023-11-21T13:58:49;41.70;;;28.48;;
41167;SDS011;26906;45.658;9.272;2023-11-21T14:01:19;41.70;;;28.63;;
41167;SDS011;26906;45.658;9.272;2023-11-21T14:03:58;45.80;;;28.35;;
41167;SDS011;26906;45.658;9.272;2023-11-21T14:06:48;41.33;;;27.60;;
41167;SDS011;26906;45.658;9.272;2023-11-21T14:09:17;38.42;;;26.88;;
41167;SDS011;26906;45.658;9.272;2023-11-21T14:11:57;38.90;;;26.52;;
41167;SDS011;26906;45.658;9.272;2023-11-21T14:14:24;42.47;;;26.75;;
41167;SDS011;26906;45.658;9.272;2023-11-21T14:16:52;40.40;;;26.95;;
41167;SDS011;26906;45.658;9.272;2023-11-21T14:19:18;41.65;;;27.42;;
41167;SDS011;26906;45.658;9.272;2023-11-21T14:21:45;38.72;;;27.13;;
41167;SDS011;26906;45.658;9.272;2023-11-21T14:24:12;45.67;;;29.08;;
41167;SDS011;26906;45.658;9.272;2023-11-21T14:26:41;43.72;;;28.75;;
41167;SDS011;26906;45.658;9.272;2023-11-21T14:29:08;44.00;;;27.98;;
41167;SDS011;26906;45.658;9.272;2023-11-21T14:31:37;38.45;;;29.00;;
41167;SDS011;26906;45.658;9.272;2023-11-21T14:34:03;36.88;;;27.33;;
41167;SDS011;26906;45.658;9.272;2023-11-21T14:36:33;34.40;;;25.63;;
41167;SDS011;26906;45.658;9.272;2023-11-21T14:38:59;34.40;;;23.35;;
41167;SDS011;26906;45.658;9.272;2023-11-21T14:41:25;39.17;;;23.80;;
41167;SDS011;26906;45.658;9.272;2023-11-21T14:43:52;44.17;;;32.20;;
41167;SDS011;26906;45.658;9.272;2023-11-21T14:46:19;32.05;;;22.92;;
41167;SDS011;26906;45.658;9.272;2023-11-21T14:48:48;30.20;;;22.60;;
41167;SDS011;26906;45.658;9.272;2023-11-21T14:51:25;30.50;;;20.23;;
41167;SDS011;26906;45.658;9.272;2023-11-21T14:53:53;27.65;;;19.88;;
41167;SDS011;26906;45.658;9.272;2023-11-21T14:56:20;24.10;;;18.73;;
41167;SDS011;26906;45.658;9.272;2023-11-21T14:58:53;25.05;;;17.98;;
41167;SDS011;26906;45.658;9.272;2023-11-21T15:01:21;20.60;;;15.32;;
41167;SDS011;26906;45.658;9.272;2023-11-21T15:03:55;21.30;;;14.40;;
41167;SDS011;26906;45.658;9.272;2023-11-21T15:06:21;17.85;;;13.23;;
41167;SDS011;26906;45.658;9.272;2023-11-21T15:08:56;21.08;;;13.93;;
41167;SDS011;26906;45.658;9.272;2023-11-21T15:11:31;25.75;;;15.45;;
41167;SDS011;26906;45.658;9.272;2023-11-21T15:13:59;19.75;;;14.13;;
41167;SDS011;26906;45.658;9.272;2023-11-21T15:16:25;20.67;;;16.80;;
41167;SDS011;26906;45.658;9.272;2023-11-21T15:18:52;19.17;;;14.35;;
41167;SDS011;26906;45.658;9.272;2023-11-21T15:21:21;19.08;;;13.25;;
41167;SDS011;26906;45.658;9.272;2023-11-21T15:23:49;18.08;;;12.15;;
41167;SDS011;26906;45.658;9.272;2023-11-21T15:26:16;19.88;;;12.45;;
41167;SDS011;26906;45.658;9.272;2023-11-21T15:28:42;42.95;;;23.50;;
41167;SDS011;26906;45.658;9.272;2023-11-21T15:31:07;68.25;;;44.53;;
41167;SDS011;26906;45.658;9.272;2023-11-21T15:33:34;18.10;;;14.48;;
41167;SDS011;26906;45.658;9.272;2023-11-21T15:36:04;16.23;;;11.15;;
41167;SDS011;26906;45.658;9.272;2023-11-21T15:38:32;16.10;;;11.77;;
41167;SDS011;26906;45.658;9.272;2023-11-21T15:40:58;17.23;;;11.80;;
41167;SDS011;26906;45.658;9.272;2023-11-21T15:43:24;17.45;;;10.23;;
41167;SDS011;26906;45.658;9.272;2023-11-21T15:45:50;26.33;;;11.77;;
41167;SDS011;26906;45.658;9.272;2023-11-21T15:48:15;15.55;;;10.57;;
41167;SDS011;26906;45.658;9.272;2023-11-21T15:50:41;18.00;;;10.15;;
41167;SDS011;26906;45.658;9.272;2023-11-21T15:53:07;17.35;;;11.10;;
41167;SDS011;26906;45.658;9.272;2023-11-21T15:55:33;19.30;;;11.45;;
41167;SDS011;26906;45.658;9.272;2023-11-21T15:58:01;18.60;;;11.82;;
41167;SDS011;26906;45.658;9.272;2023-11-21T16:00:31;21.42;;;13.05;;
41167;SDS011;26906;45.658;9.272;2023-11-21T16:02:56;19.58;;;14.48;;
41167;SDS011;26906;45.658;9.272;2023-11-21T16:05:22;36.38;;;22.63;;
41167;SDS011;26906;45.658;9.272;2023-11-21T16:07:50;32.33;;;20.80;;
41167;SDS011;26906;45.658;9.272;2023-11-21T16:10:17;25.13;;;16.60;;
41167;SDS011;26906;45.658;9.272;2023-11-21T16:12:44;22.02;;;14.20;;
41167;SDS011;26906;45.658;9.272;2023-11-21T16:15:10;19.88;;;14.45;;
41167;SDS011;26906;45.658;9.272;2023-11-21T16:17:37;21.33;;;15.10;;
41167;SDS011;26906;45.658;9.272;2023-11-21T16:20:03;23.27;;;16.17;;
41167;SDS011;26906;45.658;9.272;2023-11-21T16:22:38;27.77;;;15.57;;
41167;SDS011;26906;45.658;9.272;2023-11-21T16:25:05;32.25;;;19.10;;
41167;SDS011;26906;45.658;9.272;2023-11-21T16:27:37;26.10;;;16.20;;
41167;SDS011;26906;45.658;9.272;2023-11-21T16:30:04;27.15;;;16.83;;
41167;SDS011;26906;45.658;9.272;2023-11-21T16:32:31;23.10;;;16.10;;
41167;SDS011;26906;45.658;9.272;2023-11-21T16:34:59;23.05;;;18.00;;
41167;SDS011;26906;45.658;9.272;2023-11-21T16:37:27;23.45;;;15.40;;
41167;SDS011;26906;45.658;9.272;2023-11-21T16:39:53;27.10;;;17.27;;
41167;SDS011;26906;45.658;9.272;2023-11-21T16:42:19;28.17;;;17.90;;
41167;SDS011;26906;45.658;9.272;2023-11-21T16:44:45;24.55;;;16.23;;
41167;SDS011;26906;45.658;9.272;2023-11-21T16:47:10;32.97;;;17.95;;
41167;SDS011;26906;45.658;9.272;2023-11-21T16:49:36;33.47;;;16.20;;
41167;SDS011;26906;45.658;9.272;2023-11-21T16:52:03;32.00;;;17.48;;
41167;SDS011;26906;45.658;9.272;2023-11-21T16:54:32;34.67;;;17.45;;
41167;SDS011;26906;45.658;9.272;2023-11-21T16:56:58;33.08;;;17.42;;
41167;SDS011;26906;45.658;9.272;2023-11-21T16:59:24;24.77;;;15.93;;
41167;SDS011;26906;45.658;9.272;2023-11-21T17:01:50;26.48;;;16.52;;
41167;SDS011;26906;45.658;9.272;2023-11-21T17:04:15;24.85;;;16.15;;
41167;SDS011;26906;45.658;9.272;2023-11-21T17:06:43;25.23;;;16.35;;
41167;SDS011;26906;45.658;9.272;2023-11-21T17:09:10;26.88;;;16.92;;
41167;SDS011;26906;45.658;9.272;2023-11-21T17:11:39;25.10;;;16.95;;
41167;SDS011;26906;45.658;9.272;2023-11-21T17:14:08;29.75;;;19.80;;
41167;SDS011;26906;45.658;9.272;2023-11-21T17:16:34;35.28;;;20.88;;
41167;SDS011;26906;45.658;9.272;2023-11-21T17:19:00;27.50;;;18.92;;
41167;SDS011;26906;45.658;9.272;2023-11-21T17:21:30;26.55;;;18.20;;
41167;SDS011;26906;45.658;9.272;2023-11-21T17:23:58;27.60;;;17.17;;
41167;SDS011;26906;45.658;9.272;2023-11-21T17:26:26;25.50;;;17.92;;
41167;SDS011;26906;45.658;9.272;2023-11-21T17:28:52;33.05;;;20.42;;
41167;SDS011;26906;45.658;9.272;2023-11-21T17:31:19;30.00;;;19.67;;
41167;SDS011;26906;45.658;9.272;2023-11-21T17:33:47;28.05;;;18.92;;
41167;SDS011;26906;45.658;9.272;2023-11-21T17:36:13;27.48;;;18.25;;
41167;SDS011;26906;45.658;9.272;2023-11-21T17:38:40;36.20;;;19.50;;
41167;SDS011;26906;45.658;9.272;2023-11-21T17:41:26;33.05;;;21.38;;
41167;SDS011;26906;45.658;9.272;2023-11-21T17:43:52;41.55;;;24.67;;
41167;SDS011;26906;45.658;9.272;2023-11-21T17:46:20;31.23;;;21.65;;
41167;SDS011;26906;45.658;9.272;2023-11-21T17:48:50;30.02;;;19.35;;
41167;SDS011;26906;45.658;9.272;2023-11-21T17:51:17;36.78;;;21.08;;
41167;SDS011;26906;45.658;9.272;2023-11-21T17:53:43;39.92;;;22.65;;
41167;SDS011;26906;45.658;9.272;2023-11-21T17:56:15;32.65;;;21.00;;
41167;SDS011;26906;45.658;9.272;2023-11-21T18:01:08;32.63;;;20.80;;
41167;SDS011;26906;45.658;9.272;2023-11-21T18:03:36;34.25;;;22.42;;
41167;SDS011;26906;45.658;9.272;2023-11-21T18:06:03;33.88;;;21.38;;
41167;SDS011;26906;45.658;9.272;2023-11-21T18:08:29;37.17;;;24.10;;
41167;SDS011;26906;45.658;9.272;2023-11-21T18:10:54;33.75;;;21.63;;
41167;SDS011;26906;45.658;9.272;2023-11-21T18:13:24;30.73;;;21.48;;
41167;SDS011;26906;45.658;9.272;2023-11-21T18:15:50;39.75;;;25.73;;
41167;SDS011;26906;45.658;9.272;2023-11-21T18:18:16;35.72;;;22.60;;
41167;SDS011;26906;45.658;9.272;2023-11-21T18:20:42;32.92;;;22.73;;
41167;SDS011;26906;45.658;9.272;2023-11-21T18:23:09;32.08;;;21.58;;
41167;SDS011;26906;45.658;9.272;2023-11-21T18:25:35;35.90;;;23.35;;
41167;SDS011;26906;45.658;9.272;2023-11-21T18:28:01;34.28;;;23.33;;
41167;SDS011;26906;45.658;9.272;2023-11-21T18:30:27;35.92;;;23.23;;
41167;SDS011;26906;45.658;9.272;2023-11-21T18:32:55;34.55;;;22.60;;
41167;SDS011;26906;45.658;9.272;2023-11-21T18:35:20;38.50;;;23.40;;
41167;SDS011;26906;45.658;9.272;2023-11-21T18:37:48;41.58;;;24.92;;
41167;SDS011;26906;45.658;9.272;2023-11-21T18:40:13;38.17;;;25.67;;
41167;SDS011;26906;45.658;9.272;2023-11-21T18:42:41;50.15;;;28.33;;
41167;SDS011;26906;45.658;9.272;2023-11-21T18:45:09;48.67;;;28.25;;
41167;SDS011;26906;45.658;9.272;2023-11-21T18:47:37;51.10;;;28.52;;
41167;SDS011;26906;45.658;9.272;2023-11-21T18:50:04;49.03;;;30.38;;
41167;SDS011;26906;45.658;9.272;2023-11-21T18:52:33;52.83;;;30.38;;
41167;SDS011;26906;45.658;9.272;2023-11-21T18:54:59;47.60;;;29.70;;
41167;SDS011;26906;45.658;9.272;2023-11-21T18:57:29;48.70;;;28.15;;
41167;SDS011;26906;45.658;9.272;2023-11-21T18:59:56;49.50;;;29.50;;
41167;SDS011;26906;45.658;9.272;2023-11-21T19:02:21;51.33;;;29.15;;
41167;SDS011;26906;45.658;9.272;2023-11-21T19:04:50;50.08;;;26.98;;
41167;SDS011;26906;45.658;9.272;2023-11-21T19:07:16;46.45;;;28.05;;
41167;SDS011;26906;45.658;9.272;2023-11-21T19:09:44;44.90;;;25.95;;
41167;SDS011;26906;45.658;9.272;2023-11-21T19:12:09;50.50;;;28.15;;
41167;SDS011;26906;45.658;9.272;2023-11-21T19:14:38;47.13;;;28.58;;
41167;SDS011;26906;45.658;9.272;2023-11-21T19:17:03;45.17;;;26.73;;
41167;SDS011;26906;45.658;9.272;2023-11-21T19:19:30;38.10;;;24.48;;
41167;SDS011;26906;45.658;9.272;2023-11-21T19:21:56;33.60;;;22.52;;
41167;SDS011;26906;45.658;9.272;2023-11-21T19:24:21;35.65;;;21.92;;
41167;SDS011;26906;45.658;9.272;2023-11-21T19:26:47;36.33;;;25.25;;
41167;SDS011;26906;45.658;9.272;2023-11-21T19:29:14;41.58;;;28.33;;
41167;SDS011;26906;45.658;9.272;2023-11-21T19:31:40;38.40;;;27.33;;
41167;SDS011;26906;45.658;9.272;2023-11-21T19:34:06;40.70;;;25.70;;
41167;SDS011;26906;45.658;9.272;2023-11-21T19:36:31;42.65;;;26.08;;
41167;SDS011;26906;45.658;9.272;2023-11-21T19:39:03;36.25;;;23.63;;
41167;SDS011;26906;45.658;9.272;2023-11-21T19:41:28;36.40;;;24.38;;
41167;SDS011;26906;45.658;9.272;2023-11-21T19:43:54;36.10;;;21.80;;
41167;SDS011;26906;45.658;9.272;2023-11-21T19:46:22;35.90;;;22.00;;
41167;SDS011;26906;45.658;9.272;2023-11-21T19:48:47;35.45;;;22.65;;
41167;SDS011;26906;45.658;9.272;2023-11-21T19:51:17;37.15;;;23.10;;
41167;SDS011;26906;45.658;9.272;2023-11-21T19:53:43;32.42;;;22.35;;
41167;SDS011;26906;45.658;9.272;2023-11-21T19:56:09;33.33;;;21.85;;
41167;SDS011;26906;45.658;9.272;2023-11-21T19:58:38;31.70;;;21.52;;
41167;SDS011;26906;45.658;9.272;2023-11-21T20:01:07;34.88;;;23.63;;
41167;SDS011;26906;45.658;9.272;2023-11-21T20:03:32;32.90;;;22.65;;
41167;SDS011;26906;45.658;9.272;2023-11-21T20:06:00;35.05;;;22.73;;
41167;SDS011;26906;45.658;9.272;2023-11-21T20:08:26;35.25;;;22.58;;
41167;SDS011;26906;45.658;9.272;2023-11-21T20:10:56;34.22;;;23.50;;
41167;SDS011;26906;45.658;9.272;2023-11-21T20:13:22;31.90;;;21.88;;
41167;SDS011;26906;45.658;9.272;2023-11-21T20:15:48;36.25;;;23.13;;
41167;SDS011;26906;45.658;9.272;2023-11-21T20:18:15;35.03;;;22.75;;
41167;SDS011;26906;45.658;9.272;2023-11-21T20:20:41;39.65;;;24.25;;
41167;SDS011;26906;45.658;9.272;2023-11-21T20:23:06;31.42;;;22.70;;
41167;SDS011;26906;45.658;9.272;2023-11-21T20:25:32;32.92;;;22.75;;
41167;SDS011;26906;45.658;9.272;2023-11-21T20:27:59;35.63;;;21.77;;
41167;SDS011;26906;45.658;9.272;2023-11-21T20:30:25;33.42;;;21.17;;
41167;SDS011;26906;45.658;9.272;2023-11-21T20:32:57;30.67;;;23.08;;
41167;SDS011;26906;45.658;9.272;2023-11-21T20:35:28;35.15;;;23.48;;
41167;SDS011;26906;45.658;9.272;2023-11-21T20:37:55;32.08;;;22.45;;
41167;SDS011;26906;45.658;9.272;2023-11-21T20:40:21;34.92;;;23.05;;
41167;SDS011;26906;45.658;9.272;2023-11-21T20:42:49;33.63;;;23.52;;
41167;SDS011;26906;45.658;9.272;2023-11-21T20:45:17;33.65;;;22.10;;
41167;SDS011;26906;45.658;9.272;2023-11-21T20:47:46;35.13;;;23.65;;
41167;SDS011;26906;45.658;9.272;2023-11-21T20:50:11;33.95;;;21.92;;
41167;SDS011;26906;45.658;9.272;2023-11-21T20:52:37;34.10;;;21.40;;
41167;SDS011;26906;45.658;9.272;2023-11-21T20:55:03;33.08;;;23.45;;
41167;SDS011;26906;45.658;9.272;2023-11-21T20:57:29;34.97;;;22.25;;
41167;SDS011;26906;45.658;9.272;2023-11-21T20:59:55;30.88;;;22.52;;
41167;SDS011;26906;45.658;9.272;2023-11-21T21:02:20;35.95;;;22.17;;
41167;SDS011;26906;45.658;9.272;2023-11-21T21:04:47;41.25;;;22.38;;
41167;SDS011;26906;45.658;9.272;2023-11-21T21:07:13;38.67;;;24.30;;
41167;SDS011;26906;45.658;9.272;2023-11-21T21:09:39;29.88;;;21.73;;
41167;SDS011;26906;45.658;9.272;2023-11-21T21:12:05;37.25;;;24.17;;
